Time;durP1;ratioP1;P1;durP2;ratioP2;P2;SDS_P1;SDS_P2;PMS_P1;PMS_P2;Temp;Humidity;BMP_temperature;BMP_pressure;BME280_temperature;BME280_humidity;BME280_pressure;Samples;Min_cycle;Max_cycle;Signal;HPM_P1;HPM_P2
2022/02/16 00:06:44;;;;;;;30.40;19.80;;;;;;;2.60;77.88;99108.48;431857;1270;141726;-68
2022/02/16 00:16:50;;;;;;;31.40;21.20;;;;;;;2.34;78.01;99102.54;433102;1270;141527;-72
2022/02/16 00:26:56;;;;;;;34.20;23.60;;;;;;;2.00;78.03;99091.38;433472;1270;141553;-66
2022/02/16 00:37:01;;;;;;;32.00;23.60;;;;;;;1.67;78.34;99093.24;433517;1270;141012;-74
2022/02/16 00:47:08;;;;;;;36.00;20.60;;;;;;;1.38;78.78;99080.78;433865;1270;141163;-73
2022/02/16 00:57:16;;;;;;;35.10;23.30;;;;;;;1.09;79.07;99074.68;431184;1270;140802;-72
2022/02/16 01:07:21;;;;;;;37.40;24.30;;;;;;;0.85;79.15;99062.54;434518;1270;141215;-68
2022/02/16 01:17:27;;;;;;;41.40;24.90;;;;;;;0.69;79.96;99058.03;433024;1270;141366;-68
2022/02/16 01:27:33;;;;;;;38.70;24.90;;;;;;;0.54;80.12;99045.27;434052;1270;140955;-71
2022/02/16 01:37:39;;;;;;;40.50;25.10;;;;;;;0.39;80.26;99033.81;431934;1269;195812;-70
2022/02/16 01:47:49;;;;;;;37.60;23.10;;;;;;;0.33;80.88;99018.35;432113;1270;142668;-65
2022/02/16 01:57:55;;;;;;;36.70;23.40;;;;;;;0.26;81.22;99005.66;434692;1270;142417;-65
2022/02/16 02:08:01;;;;;;;35.70;22.90;;;;;;;0.07;81.12;98992.62;433452;1270;142348;-64
2022/02/16 02:18:12;;;;;;;34.80;24.20;;;;;;;-0.12;81.08;98991.12;433690;1270;141971;-64
2022/02/16 02:28:20;;;;;;;36.80;23.10;;;;;;;-0.21;81.65;98980.89;439226;1269;141101;-65
2022/02/16 02:38:27;;;;;;;42.40;24.40;;;;;;;-0.29;82.02;98968.91;432638;1269;148005;-65
2022/02/16 02:48:31;;;;;;;;;;;;;;;-0.26;82.44;98959.22;434010;1270;144189;-64
2022/02/16 02:58:38;;;;;;;44.90;25.00;;;;;;;-0.34;82.30;98952.91;440064;1270;127255;-64
2022/02/16 03:08:43;;;;;;;43.70;27.40;;;;;;;-0.32;82.98;98939.61;433360;1270;142898;-65
2022/02/16 03:18:49;;;;;;;41.20;27.40;;;;;;;-0.29;83.14;98936.93;431072;1267;141336;-64
2022/02/16 03:28:55;;;;;;;45.70;30.90;;;;;;;-0.43;83.03;98941.30;431972;1270;142029;-64
2022/02/16 03:39:01;;;;;;;39.70;28.20;;;;;;;-0.45;83.43;98932.22;437842;1268;142791;-66
2022/02/16 03:49:07;;;;;;;36.60;25.20;;;;;;;-0.33;83.88;98932.42;435086;1270;141769;-63
2022/02/16 03:59:13;;;;;;;40.70;25.90;;;;;;;-0.22;84.03;98925.36;436785;1270;142373;-65
2022/02/16 04:09:20;;;;;;;36.20;24.70;;;;;;;-0.11;84.17;98914.89;434693;1270;142198;-65
2022/02/16 04:19:24;;;;;;;;;;;;;;;-0.01;84.47;98914.39;437892;1270;142346;-65
2022/02/16 04:29:30;;;;;;;35.50;22.70;;;;;;;0.04;84.40;98899.27;432179;1270;127630;-65
2022/02/16 04:39:37;;;;;;;35.70;24.10;;;;;;;0.03;84.25;98886.40;433284;1270;142421;-65
2022/02/16 04:49:42;;;;;;;33.80;22.60;;;;;;;0.04;84.50;98883.77;435541;1270;141103;-64
2022/02/16 04:59:48;;;;;;;34.50;23.20;;;;;;;0.06;84.41;98868.91;433890;1270;141409;-67
2022/02/16 05:09:54;;;;;;;38.10;24.60;;;;;;;0.11;84.83;98858.10;432726;1270;142479;-64
2022/02/16 05:20:00;;;;;;;37.90;24.10;;;;;;;0.14;84.58;98853.02;432093;1270;141392;-63
2022/02/16 05:30:08;;;;;;;38.50;25.60;;;;;;;0.16;84.60;98845.52;431581;1270;142301;-64
2022/02/16 05:40:15;;;;;;;35.80;24.60;;;;;;;0.14;84.92;98829.42;434939;1269;142369;-64
2022/02/16 05:50:21;;;;;;;37.20;25.80;;;;;;;0.19;84.97;98800.35;434277;1270;141835;-65
2022/02/16 06:00:26;;;;;;;37.10;23.40;;;;;;;0.34;84.90;98793.80;436894;1270;142014;-66
2022/02/16 06:10:32;;;;;;;34.90;24.30;;;;;;;0.54;84.62;98783.63;432808;1270;142213;-65
2022/02/16 06:20:38;;;;;;;31.10;21.40;;;;;;;0.83;84.61;98773.80;432905;1270;141558;-66
2022/02/16 06:30:44;;;;;;;33.80;23.10;;;;;;;1.30;84.11;98774.95;432138;1270;142696;-66
2022/02/16 06:40:50;;;;;;;26.90;20.30;;;;;;;1.92;83.31;98767.65;444130;1270;142487;-65
2022/02/16 06:50:56;;;;;;;27.10;19.20;;;;;;;3.03;82.17;98761.77;440831;1269;142428;-64
2022/02/16 07:01:01;;;;;;;30.70;19.10;;;;;;;4.88;80.15;98745.50;432158;1270;141917;-64
2022/02/16 07:11:07;;;;;;;20.20;16.80;;;;;;;6.94;76.90;98743.75;431882;1270;142464;-65
2022/02/16 07:21:13;;;;;;;21.80;16.60;;;;;;;8.84;73.34;98736.17;432155;1270;145314;-65
2022/02/16 07:31:19;;;;;;;20.40;15.40;;;;;;;9.74;70.19;98734.68;433115;1270;142284;-65
2022/02/16 07:41:25;;;;;;;18.10;14.00;;;;;;;10.23;67.75;98718.42;432484;1270;147606;-65
2022/02/16 07:51:31;;;;;;;15.40;12.80;;;;;;;10.19;65.69;98717.02;430898;1269;143670;-65
2022/02/16 08:01:37;;;;;;;17.70;10.70;;;;;;;11.89;64.01;98705.38;431357;1270;141666;-66
2022/02/16 08:11:45;;;;;;;11.30;10.10;;;;;;;15.12;59.60;98690.60;431689;1270;141542;-66
2022/02/16 08:21:53;;;;;;;10.50;8.50;;;;;;;17.87;55.61;98675.55;431641;1270;146667;-70
2022/02/16 08:31:59;;;;;;;9.40;7.80;;;;;;;19.40;50.69;98652.19;435172;1269;141905;-70
2022/02/16 08:42:05;;;;;;;7.60;6.80;;;;;;;20.19;47.28;98628.30;432284;1271;141468;-69
2022/02/16 08:52:11;;;;;;;8.60;6.90;;;;;;;19.19;45.58;98610.61;433006;1270;141490;-68
2022/02/16 09:02:18;;;;;;;6.00;5.20;;;;;;;19.57;44.41;98597.77;431591;1270;140665;-65
2022/02/16 09:12:24;;;;;;;6.40;5.70;;;;;;;20.85;42.43;98586.71;433361;1271;141151;-68
2022/02/16 09:22:30;;;;;;;7.20;6.50;;;;;;;21.85;40.47;98564.75;432587;1271;142044;-73
2022/02/16 09:32:36;;;;;;;7.80;5.50;;;;;;;22.82;39.12;98547.15;432446;1270;141811;-65
2022/02/16 09:42:44;;;;;;;6.50;5.10;;;;;;;21.73;37.56;98531.41;432258;1270;141181;-67
2022/02/16 09:52:50;;;;;;;6.00;4.30;;;;;;;16.00;39.43;98521.56;433976;1270;140781;-66
2022/02/16 10:02:56;;;;;;;9.80;6.50;;;;;;;12.34;42.60;98509.55;430673;1270;141077;-65
2022/02/16 10:13:04;;;;;;;7.30;5.00;;;;;;;11.02;44.93;98485.91;432454;1271;140393;-74
2022/02/16 10:23:11;;;;;;;6.10;4.50;;;;;;;10.21;46.32;98468.34;433799;1271;140917;-60
2022/02/16 10:33:23;;;;;;;8.00;5.10;;;;;;;9.93;47.64;98452.70;430647;1271;162388;-65
2022/02/16 10:43:35;;;;;;;7.20;3.80;;;;;;;9.72;48.27;98422.35;432362;1271;145249;-60
2022/02/16 10:53:42;;;;;;;4.90;3.80;;;;;;;9.42;48.82;98395.70;431639;1269;145272;-64
2022/02/16 11:03:51;;;;;;;3.70;3.20;;;;;;;9.57;49.57;98369.91;430278;1269;142276;-66
2022/02/16 11:13:58;;;;;;;5.50;3.70;;;;;;;9.56;49.74;98346.75;431492;1270;150125;-60
2022/02/16 11:24:04;;;;;;;5.20;3.00;;;;;;;9.53;50.30;98331.61;430289;1270;183531;-62
2022/02/16 11:34:22;;;;;;;7.40;4.00;;;;;;;9.63;50.55;98316.45;430561;1270;144472;-66
2022/02/16 11:45:04;;;;;;;4.30;3.10;;;;;;;9.67;50.66;98304.04;430421;1271;141928;-67
2022/02/16 11:55:23;;;;;;;3.80;3.20;;;;;;;9.72;50.85;98282.40;432427;1270;146104;-67
2022/02/16 12:05:49;;;;;;;3.00;2.70;;;;;;;9.69;51.31;98264.23;432359;1270;141779;-68
2022/02/16 12:16:01;;;;;;;3.60;3.20;;;;;;;9.96;51.31;98239.00;431293;1270;141841;-67
2022/02/16 12:26:11;;;;;;;4.30;3.40;;;;;;;10.24;50.94;98215.84;431266;1270;141095;-67
2022/02/16 12:36:18;;;;;;;4.80;3.40;;;;;;;10.05;50.95;98194.89;430172;1270;160642;-67
2022/02/16 12:46:27;;;;;;;4.90;3.30;;;;;;;9.87;51.33;98164.54;430944;1270;145445;-62
2022/02/16 12:56:40;;;;;;;5.00;4.10;;;;;;;9.93;51.37;98125.64;431927;1268;142672;-67
2022/02/16 13:06:50;;;;;;;4.80;3.50;;;;;;;9.75;51.32;98097.62;432619;1270;145179;-77
2022/02/16 13:17:02;;;;;;;8.50;4.50;;;;;;;9.66;51.69;98062.66;433994;1270;143936;-67
2022/02/16 13:27:08;;;;;;;6.60;4.10;;;;;;;9.50;51.98;98040.60;432101;1270;141818;-68
2022/02/16 13:37:14;;;;;;;12.50;5.10;;;;;;;9.43;52.17;98016.23;431813;1270;141453;-77
2022/02/16 13:47:22;;;;;;;8.10;5.30;;;;;;;9.41;52.42;97987.44;435498;1270;141362;-75
2022/02/16 13:57:30;;;;;;;;;;;;;;;9.50;52.55;97965.34;431835;1270;141882;-65
2022/02/16 14:07:37;;;;;;;6.10;4.10;;;;;;;9.47;52.32;97945.02;432751;1270;126670;-68
2022/02/16 14:17:59;;;;;;;8.70;3.90;;;;;;;9.34;52.49;97928.80;433945;1270;141988;-78
2022/02/16 14:28:10;;;;;;;5.30;3.60;;;;;;;9.30;52.56;97912.54;433072;1270;141278;-71
2022/02/16 14:38:17;;;;;;;7.40;3.70;;;;;;;9.23;52.66;97889.92;430998;1270;248570;-68
2022/02/16 14:48:23;;;;;;;5.50;3.50;;;;;;;9.28;52.80;97870.63;437824;1269;141554;-67
2022/02/16 14:58:29;;;;;;;5.10;3.50;;;;;;;9.31;52.92;97853.64;446064;1269;141275;-67
2022/02/16 15:08:35;;;;;;;5.70;3.60;;;;;;;9.17;52.91;97840.31;445471;1269;194696;-73
2022/02/16 15:18:41;;;;;;;5.30;2.50;;;;;;;8.96;53.20;97824.50;434546;1270;140319;-70
2022/02/16 15:28:47;;;;;;;6.50;3.90;;;;;;;8.78;53.70;97797.23;434032;1269;140166;-70
2022/02/16 15:38:53;;;;;;;5.80;4.10;;;;;;;8.60;54.30;97786.88;431332;1270;140966;-68
2022/02/16 15:49:02;;;;;;;8.30;5.50;;;;;;;8.34;54.96;97774.34;447448;1270;141214;-68
2022/02/16 15:59:08;;;;;;;5.40;3.80;;;;;;;8.13;55.38;97800.49;447544;1267;140597;-68
2022/02/16 16:09:14;;;;;;;6.90;4.80;;;;;;;7.99;55.72;97794.63;443327;1270;140278;-73
2022/02/16 16:19:22;;;;;;;6.70;4.60;;;;;;;7.89;56.20;97754.49;430788;1270;139644;-67
2022/02/16 16:29:28;;;;;;;11.20;5.90;;;;;;;7.79;56.28;97727.10;440195;1269;140941;-68
2022/02/16 16:39:34;;;;;;;9.50;6.00;;;;;;;7.71;56.37;97724.46;430495;1270;140897;-61
2022/02/16 16:49:39;;;;;;;6.70;4.20;;;;;;;7.65;56.73;97725.28;430230;1270;140893;-61
2022/02/16 16:59:45;;;;;;;7.40;4.50;;;;;;;7.57;57.47;97729.70;444077;1269;140667;-62
2022/02/16 17:09:54;;;;;;;8.10;4.50;;;;;;;7.69;58.36;97731.19;446915;1269;140162;-65
2022/02/16 17:20:00;;;;;;;7.10;5.20;;;;;;;7.80;58.68;97725.63;447350;1268;142116;-69
2022/02/16 17:30:11;;;;;;;7.50;4.80;;;;;;;7.77;58.63;97726.19;440998;1269;142206;-64
2022/02/16 17:40:17;;;;;;;5.70;3.80;;;;;;;7.84;58.55;97735.78;445536;1269;191662;-68
2022/02/16 17:50:23;;;;;;;7.50;4.90;;;;;;;7.64;60.49;97734.58;439914;1269;140704;-65
2022/02/16 18:00:31;;;;;;;12.00;3.90;;;;;;;7.23;62.53;97725.15;437208;1270;142514;-61
2022/02/16 18:10:38;;;;;;;4.40;2.90;;;;;;;7.16;63.10;97695.42;447374;1269;141812;-61
2022/02/16 18:20:43;;;;;;;6.30;3.50;;;;;;;7.30;62.78;97675.16;447298;1270;141534;-61
2022/02/16 18:30:49;;;;;;;4.10;2.80;;;;;;;7.36;62.61;97665.14;446846;1267;142029;-61
2022/02/16 18:40:55;;;;;;;12.20;5.50;;;;;;;7.44;62.25;97667.63;434012;1270;147739;-61
2022/02/16 18:51:01;;;;;;;6.90;3.50;;;;;;;7.52;62.28;97656.31;430808;1270;142138;-62
2022/02/16 19:01:08;;;;;;;7.20;3.50;;;;;;;7.61;62.55;97665.04;437459;1269;141866;-64
2022/02/16 19:11:14;;;;;;;14.80;7.00;;;;;;;7.65;63.52;97663.67;431929;1270;144355;-65
2022/02/16 19:21:20;;;;;;;4.70;3.10;;;;;;;7.40;64.78;97653.66;432056;1270;140612;-65
2022/02/16 19:31:27;;;;;;;4.20;2.50;;;;;;;7.15;65.75;97627.84;433819;1270;142418;-63
2022/02/16 19:41:33;;;;;;;5.30;3.20;;;;;;;7.04;66.15;97590.98;432788;1270;142195;-64
2022/02/16 19:51:39;;;;;;;4.10;3.10;;;;;;;7.06;66.10;97573.42;431028;1270;141413;-65
2022/02/16 20:01:49;;;;;;;4.00;3.00;;;;;;;7.09;65.96;97554.52;430963;1270;140739;-65
2022/02/16 20:11:55;;;;;;;6.10;2.50;;;;;;;7.19;65.68;97542.38;432518;1270;140802;-68
2022/02/16 20:22:06;;;;;;;3.60;2.40;;;;;;;7.27;65.67;97531.52;433614;1270;140463;-66
2022/02/16 20:32:12;;;;;;;3.90;2.40;;;;;;;7.32;65.40;97491.41;430889;1270;143660;-65
2022/02/16 20:42:25;;;;;;;7.90;3.10;;;;;;;7.30;65.42;97463.36;432052;1270;141589;-65
2022/02/16 20:52:31;;;;;;;2.70;1.80;;;;;;;7.33;65.77;97464.31;433669;1270;142009;-65
2022/02/16 21:02:37;;;;;;;10.20;5.00;;;;;;;7.34;65.82;97445.09;431168;1270;140769;-66
2022/02/16 21:12:43;;;;;;;4.10;2.10;;;;;;;7.31;65.84;97423.05;431296;1270;141719;-65
2022/02/16 21:22:51;;;;;;;3.70;1.60;;;;;;;7.28;65.99;97415.30;430094;1270;143172;-65
2022/02/16 21:32:58;;;;;;;;;;;;;;;7.13;66.19;97389.61;430879;1270;142515;-64
2022/02/16 21:43:06;;;;;;;2.60;2.20;;;;;;;7.10;66.27;97362.49;430559;1270;128399;-66
2022/02/16 21:53:13;;;;;;;3.00;1.80;;;;;;;7.07;66.41;97341.36;432525;1270;141911;-65
2022/02/16 22:03:19;;;;;;;3.70;2.10;;;;;;;6.99;66.72;97341.19;430578;1270;142002;-65
2022/02/16 22:13:25;;;;;;;5.70;2.30;;;;;;;6.88;67.19;97345.44;434329;1270;142117;-67
2022/02/16 22:23:30;;;;;;;3.50;2.20;;;;;;;6.99;67.17;97348.84;432667;1270;142446;-69
2022/02/16 22:33:36;;;;;;;2.00;1.50;;;;;;;6.99;67.49;97336.31;431734;1269;143777;-69
2022/02/16 22:43:47;;;;;;;2.70;1.90;;;;;;;6.97;67.80;97328.66;435169;1269;142052;-70
2022/02/16 22:53:55;;;;;;;2.30;2.10;;;;;;;6.98;68.07;97295.38;431253;1270;198038;-65
2022/02/16 23:04:01;;;;;;;4.30;2.50;;;;;;;6.96;68.40;97280.91;431151;1270;142003;-66
2022/02/16 23:14:11;;;;;;;3.30;2.40;;;;;;;6.94;68.75;97246.88;431778;1270;141430;-66
2022/02/16 23:24:17;;;;;;;4.90;1.80;;;;;;;6.90;69.11;97205.59;431050;1270;144238;-72
2022/02/16 23:34:23;;;;;;;3.60;2.40;;;;;;;6.87;69.21;97171.96;434352;1270;142073;-68
2022/02/16 23:44:29;;;;;;;2.30;1.60;;;;;;;6.83;69.46;97109.30;433290;1270;142879;-82
2022/02/16 23:54:35;;;;;;;;;;;;;;;6.80;69.84;97078.10;435653;1270;196769;-75
